CBRA01 YWLM-YWLM

Flight info

Callsign CBRA01
Flight time 0h 59m
Altitude 29000
Route IFFEY
Aircraft F35/M-SDILOTUVY/C

Departure

Time 2026-04-26 10:17
Airport Newcastle Airport (YWLM)

Arrival

Time 2026-04-26 11:16
Airport Newcastle Airport (YWLM)
Time Latitude Longitude Altitude Speed Heading
2026-04-26 10:03 -32.79013 151.83893 31 ft 0 kts 235°
2026-04-26 10:12 -32.79015 151.83889 31 ft 4 kts 234°
2026-04-26 10:12 -32.79036 151.83876 31 ft 9 kts 161°
2026-04-26 10:12 -32.79093 151.83836 31 ft 10 kts 231°
2026-04-26 10:13 -32.79137 151.83771 31 ft 11 kts 231°
2026-04-26 10:13 -32.79211 151.83692 31 ft 18 kts 219°
2026-04-26 10:13 -32.79312 151.83590 30 ft 19 kts 220°
2026-04-26 10:13 -32.79379 151.83483 28 ft 14 kts 290°
2026-04-26 10:14 -32.79294 151.83359 30 ft 23 kts 310°
2026-04-26 10:14 -32.79194 151.83221 32 ft 21 kts 313°
2026-04-26 10:14 -32.79099 151.83090 32 ft 20 kts 310°
2026-04-26 10:14 -32.79012 151.82965 32 ft 20 kts 309°
2026-04-26 10:15 -32.78922 151.82836 29 ft 20 kts 310°
2026-04-26 10:15 -32.78833 151.82711 29 ft 20 kts 311°
2026-04-26 10:15 -32.78743 151.82588 28 ft 19 kts 311°
2026-04-26 10:15 -32.78657 151.82468 28 ft 21 kts 310°
2026-04-26 10:16 -32.78649 151.82340 28 ft 11 kts 221°
2026-04-26 10:16 -32.78656 151.82333 28 ft 0 kts 220°
2026-04-26 10:16 -32.78713 151.82294 26 ft 20 kts 181°
2026-04-26 10:17 -32.78992 151.82653 27 ft 153 kts 130°
2026-04-26 10:17 -32.80077 151.84173 396 ft 319 kts 130°
2026-04-26 10:17 -32.81746 151.86500 1171 ft 405 kts 129°
2026-04-26 10:17 -32.83652 151.89211 2140 ft 439 kts 119°
2026-04-26 10:18 -32.83928 151.92682 3759 ft 447 kts 75°
2026-04-26 10:18 -32.82929 151.96494 5007 ft 521 kts 71°
2026-04-26 10:18 -32.82061 152.00887 6491 ft 567 kts 96°
2026-04-26 10:18 -32.82862 152.05585 8556 ft 589 kts 100°
2026-04-26 10:19 -32.83624 152.10344 10669 ft 581 kts 100°
2026-04-26 10:19 -32.84362 152.15066 12177 ft 588 kts 100°
2026-04-26 10:19 -32.85116 152.19878 12194 ft 594 kts 100°
2026-04-26 10:19 -32.85878 152.24709 12229 ft 596 kts 100°
2026-04-26 10:20 -32.86634 152.29553 12211 ft 595 kts 100°
2026-04-26 10:20 -32.87134 152.32753 12175 ft 594 kts 100°
2026-04-26 10:20 -32.88145 152.39225 12101 ft 595 kts 100°
2026-04-26 10:20 -32.88901 152.44070 12041 ft 596 kts 100°
2026-04-26 10:21 -32.89657 152.48911 11967 ft 595 kts 100°
2026-04-26 10:21 -32.90412 152.53753 11889 ft 596 kts 100°
2026-04-26 10:21 -32.91169 152.58607 11809 ft 596 kts 101°
2026-04-26 10:21 -32.91918 152.63403 11714 ft 595 kts 101°
2026-04-26 10:22 -32.92674 152.68246 11609 ft 596 kts 101°
2026-04-26 10:22 -32.93431 152.73099 11506 ft 597 kts 101°
2026-04-26 10:22 -32.94188 152.77948 11391 ft 595 kts 101°
2026-04-26 10:22 -32.94942 152.82783 11261 ft 596 kts 101°
2026-04-26 10:23 -32.95698 152.87655 11282 ft 593 kts 100°
2026-04-26 10:23 -32.96334 152.92473 12496 ft 582 kts 95°
2026-04-26 10:23 -32.95933 152.97199 16580 ft 564 kts 65°
2026-04-26 10:23 -32.93574 153.00990 20910 ft 584 kts 43°
2026-04-26 10:24 -32.90228 153.03864 23587 ft 610 kts 30°
2026-04-26 10:24 -32.86224 153.05980 24522 ft 658 kts 20°
2026-04-26 10:24 -32.81586 153.07543 24667 ft 724 kts 15°
2026-04-26 10:24 -32.76706 153.08919 24639 ft 704 kts 14°
2026-04-26 10:25 -32.72041 153.10054 24653 ft 668 kts 12°
2026-04-26 10:25 -32.67590 153.11036 24553 ft 627 kts 11°
2026-04-26 10:25 -32.63923 153.11516 24452 ft 474 kts
2026-04-26 10:25 -32.60821 153.11124 24480 ft 433 kts 347°
2026-04-26 10:26 -32.58229 153.09651 24450 ft 395 kts 322°
2026-04-26 10:26 -32.56302 153.07521 24302 ft 390 kts 311°
2026-04-26 10:26 -32.54553 153.04606 24159 ft 508 kts 298°
2026-04-26 10:26 -32.53318 153.00517 24147 ft 526 kts 278°
2026-04-26 10:27 -32.53363 152.96408 24155 ft 475 kts 257°
2026-04-26 10:27 -32.54488 152.92898 24113 ft 438 kts 238°
2026-04-26 10:27 -32.56346 152.90206 24092 ft 414 kts 219°
2026-04-26 10:27 -32.58714 152.88237 24043 ft 421 kts 205°
2026-04-26 10:28 -32.61456 152.87050 24153 ft 414 kts 188°
2026-04-26 10:28 -32.64033 152.86714 24319 ft 359 kts 185°
2026-04-26 10:28 -32.66670 152.86243 24343 ft 410 kts 188°
2026-04-26 10:28 -32.69625 152.85563 24347 ft 449 kts 189°
2026-04-26 10:29 -32.72391 152.84901 24292 ft 383 kts 187°
2026-04-26 10:29 -32.75109 152.84380 24315 ft 401 kts 187°
2026-04-26 10:29 -32.77766 152.83842 24374 ft 379 kts 186°
2026-04-26 10:29 -32.80370 152.83342 24395 ft 395 kts 187°
2026-04-26 10:30 -32.83144 152.82706 24384 ft 401 kts 191°
2026-04-26 10:30 -32.85847 152.82048 24345 ft 393 kts 187°
2026-04-26 10:30 -32.88483 152.81547 24275 ft 348 kts 185°
2026-04-26 10:30 -32.91032 152.81105 24130 ft 392 kts 187°
2026-04-26 10:31 -32.93813 152.80445 24127 ft 419 kts 190°
2026-04-26 10:31 -32.96607 152.79773 24210 ft 392 kts 188°
2026-04-26 10:31 -32.99188 152.79262 24231 ft 367 kts 187°
2026-04-26 10:31 -33.01756 152.78745 24274 ft 380 kts 187°
2026-04-26 10:32 -33.04381 152.78201 24321 ft 390 kts 188°
2026-04-26 10:32 -33.07173 152.77575 24397 ft 425 kts 188°
2026-04-26 10:32 -33.10120 152.76921 24348 ft 420 kts 188°
2026-04-26 10:32 -33.12900 152.76322 24280 ft 393 kts 187°
2026-04-26 10:33 -33.15566 152.75776 24293 ft 393 kts 188°
2026-04-26 10:33 -33.18338 152.75178 24345 ft 414 kts 188°
2026-04-26 10:33 -33.21077 152.74585 24345 ft 382 kts 187°
2026-04-26 10:33 -33.23756 152.74043 24353 ft 401 kts 188°
2026-04-26 10:34 -33.26461 152.73465 24322 ft 384 kts 187°
2026-04-26 10:34 -33.29109 152.73089 24258 ft 398 kts 178°
2026-04-26 10:34 -33.31876 152.73485 24163 ft 402 kts 165°
2026-04-26 10:34 -33.34320 152.74659 24040 ft 372 kts 148°
2026-04-26 10:35 -33.36515 152.76494 24118 ft 383 kts 136°
2026-04-26 10:35 -33.38200 152.78928 24209 ft 381 kts 121°
2026-04-26 10:35 -33.39290 152.81810 24198 ft 382 kts 106°
2026-04-26 10:35 -33.39737 152.84947 24224 ft 386 kts 91°
2026-04-26 10:36 -33.39496 152.88173 24238 ft 391 kts 77°
2026-04-26 10:36 -33.38573 152.91178 24231 ft 379 kts 63°
2026-04-26 10:36 -33.37063 152.93733 24167 ft 384 kts 49°
2026-04-26 10:36 -33.34976 152.95917 24174 ft 412 kts 34°
2026-04-26 10:37 -33.32418 152.97372 24196 ft 397 kts 18°
2026-04-26 10:37 -33.29722 152.98001 24160 ft 406 kts 11°
2026-04-26 10:37 -33.26900 152.98658 24228 ft 410 kts 13°
2026-04-26 10:37 -33.24160 152.99261 24232 ft 404 kts 12°
2026-04-26 10:38 -33.21347 152.99897 24214 ft 417 kts 13°
2026-04-26 10:38 -33.18498 153.00532 24241 ft 408 kts 12°
2026-04-26 10:38 -33.15740 153.01102 24253 ft 403 kts 12°
2026-04-26 10:38 -33.12922 153.01687 24273 ft 418 kts 12°
2026-04-26 10:39 -33.10121 153.02293 24249 ft 378 kts 11°
2026-04-26 10:39 -33.07404 153.02804 24216 ft 417 kts 12°
2026-04-26 10:39 -33.04510 153.03437 24261 ft 412 kts 11°
2026-04-26 10:39 -33.01925 153.03898 24316 ft 369 kts
2026-04-26 10:40 -32.99515 153.04195 24273 ft 328 kts
2026-04-26 10:40 -32.97261 153.04551 24203 ft 341 kts 11°
2026-04-26 10:40 -32.94713 153.05018 24239 ft 402 kts 12°
2026-04-26 10:40 -32.91825 153.05671 24327 ft 433 kts 13°
2026-04-26 10:41 -32.88960 153.06321 24345 ft 412 kts 12°
2026-04-26 10:41 -32.86025 153.06932 24386 ft 449 kts 12°
2026-04-26 10:41 -32.82779 153.07623 24378 ft 500 kts 12°
2026-04-26 10:41 -32.79369 153.07853 23841 ft 483 kts 329°
2026-04-26 10:42 -32.76217 153.05513 21480 ft 579 kts 328°
2026-04-26 10:42 -32.72699 153.02881 19265 ft 607 kts 328°
2026-04-26 10:42 -32.69092 153.00189 16928 ft 615 kts 328°
2026-04-26 10:42 -32.65487 152.97506 16178 ft 607 kts 328°
2026-04-26 10:43 -32.61914 152.94858 15868 ft 605 kts 328°
2026-04-26 10:43 -32.58339 152.92219 15518 ft 605 kts 328°
2026-04-26 10:43 -32.54805 152.89619 15156 ft 606 kts 328°
2026-04-26 10:43 -32.51218 152.86991 14760 ft 607 kts 329°
2026-04-26 10:44 -32.47545 152.84529 14302 ft 608 kts 334°
2026-04-26 10:44 -32.43675 152.82496 13663 ft 609 kts 339°
2026-04-26 10:44 -32.39617 152.81194 13092 ft 605 kts 357°
2026-04-26 10:44 -32.35449 152.81699 12687 ft 604 kts 13°
2026-04-26 10:45 -32.31349 152.82777 12593 ft 603 kts 13°
2026-04-26 10:45 -32.27256 152.83872 12447 ft 604 kts 13°
2026-04-26 10:45 -32.23152 152.84979 12253 ft 605 kts 13°
2026-04-26 10:45 -32.19054 152.86088 12179 ft 605 kts 14°
2026-04-26 10:46 -32.14951 152.87201 12054 ft 605 kts 14°
2026-04-26 10:46 -32.10902 152.88489 12088 ft 601 kts 20°
2026-04-26 10:46 -32.06986 152.90237 12139 ft 602 kts 22°
2026-04-26 10:46 -32.03091 152.92044 12089 ft 602 kts 22°
2026-04-26 10:47 -31.99192 152.93865 12004 ft 603 kts 22°
2026-04-26 10:47 -31.95296 152.95690 11908 ft 603 kts 22°
2026-04-26 10:47 -31.91396 152.97521 11795 ft 603 kts 22°
2026-04-26 10:47 -31.87499 152.99353 11669 ft 604 kts 22°
2026-04-26 10:48 -31.83597 153.01192 11547 ft 604 kts 22°
2026-04-26 10:48 -31.79701 153.03031 11411 ft 604 kts 22°
2026-04-26 10:48 -31.75804 153.04874 11288 ft 604 kts 22°
2026-04-26 10:48 -31.71899 153.06723 11157 ft 605 kts 23°
2026-04-26 10:49 -31.67999 153.08572 11013 ft 605 kts 23°
2026-04-26 10:49 -31.64099 153.10425 10862 ft 605 kts 23°
2026-04-26 10:49 -31.60242 153.12261 10701 ft 606 kts 23°
2026-04-26 10:49 -31.56338 153.14122 10520 ft 606 kts 23°
2026-04-26 10:50 -31.52426 153.15991 10324 ft 607 kts 23°
2026-04-26 10:50 -31.49788 153.17252 10179 ft 607 kts 23°
2026-04-26 10:50 -31.44606 153.19733 9831 ft 607 kts 23°
2026-04-26 10:50 -31.40690 153.21611 9544 ft 607 kts 23°
2026-04-26 10:51 -31.36785 153.23487 9275 ft 607 kts 23°
2026-04-26 10:51 -31.28974 153.27244 8792 ft 607 kts 23°
2026-04-26 10:51 -31.25064 153.29128 8599 ft 607 kts 23°
2026-04-26 10:52 -31.21156 153.31015 8397 ft 607 kts 23°
2026-04-26 10:52 -31.17251 153.32901 8197 ft 608 kts 23°
2026-04-26 10:52 -31.13338 153.34794 7983 ft 608 kts 23°
2026-04-26 10:52 -31.09425 153.36688 7742 ft 609 kts 23°
2026-04-26 10:53 -31.05511 153.38585 7462 ft 609 kts 23°
2026-04-26 10:53 -31.01644 153.40461 7220 ft 611 kts 23°
2026-04-26 10:53 -30.97722 153.42368 7036 ft 611 kts 23°
2026-04-26 10:54 -30.89819 153.45938 6666 ft 610 kts
2026-04-26 10:54 -30.85745 153.44557 4086 ft 609 kts 341°
2026-04-26 10:54 -30.81774 153.42936 2319 ft 602 kts 341°
2026-04-26 10:54 -30.77801 153.41318 1734 ft 608 kts 335°
2026-04-26 10:55 -30.75578 153.37459 1990 ft 603 kts 282°
2026-04-26 10:55 -30.74704 153.32657 1962 ft 610 kts 282°
2026-04-26 10:55 -30.73841 153.27819 2007 ft 611 kts 281°
2026-04-26 10:55 -30.73272 153.24618 2041 ft 611 kts 281°
2026-04-26 10:56 -30.72411 153.19778 2024 ft 611 kts 281°
2026-04-26 10:56 -30.71551 153.14944 1961 ft 611 kts 281°
2026-04-26 10:56 -30.70692 153.10117 1880 ft 609 kts 281°
2026-04-26 10:56 -30.69952 153.05300 1986 ft 597 kts 264°
2026-04-26 10:57 -30.72902 153.02750 1769 ft 589 kts 188°
2026-04-26 10:57 -30.77015 153.02347 1772 ft 596 kts 167°
2026-04-26 10:57 -30.80738 153.04443 1695 ft 600 kts 151°
2026-04-26 10:57 -30.83503 153.02845 1982 ft 564 kts 290°
2026-04-26 10:58 -30.81886 153.03718 1757 ft 444 kts 146°
2026-04-26 10:58 -30.84989 153.05692 670 ft 566 kts 149°
2026-04-26 10:58 -30.88532 153.08160 411 ft 611 kts 155°
2026-04-26 10:58 -30.92613 153.08850 667 ft 599 kts 206°
2026-04-26 10:59 -30.96064 153.06135 680 ft 604 kts 206°
2026-04-26 10:59 -31.00041 153.04671 740 ft 603 kts 181°
2026-04-26 10:59 -31.03838 153.06490 838 ft 599 kts 161°
2026-04-26 10:59 -31.07821 153.05681 837 ft 597 kts 215°
2026-04-26 11:00 -31.11088 153.02612 590 ft 606 kts 217°
2026-04-26 11:00 -31.14824 153.00371 591 ft 607 kts 199°
2026-04-26 11:00 -31.18782 152.98682 611 ft 606 kts 205°
2026-04-26 11:00 -31.22746 152.97270 557 ft 604 kts 177°
2026-04-26 11:01 -31.26944 152.97703 601 ft 606 kts 174°
2026-04-26 11:01 -31.31128 152.97721 801 ft 605 kts 195°
2026-04-26 11:01 -31.34758 152.95258 572 ft 609 kts 213°
2026-04-26 11:01 -31.38626 152.93348 460 ft 608 kts 186°
2026-04-26 11:02 -31.42834 152.93608 526 ft 607 kts 175°
2026-04-26 11:02 -31.47048 152.93951 548 ft 604 kts 192°
2026-04-26 11:02 -31.50202 152.90841 450 ft 607 kts 222°
2026-04-26 11:02 -31.53458 152.87664 517 ft 605 kts 216°
2026-04-26 11:03 -31.56773 152.85030 484 ft 591 kts 207°
2026-04-26 11:03 -31.60895 152.84896 440 ft 617 kts 178°
2026-04-26 11:03 -31.65006 152.84100 315 ft 620 kts 239°
2026-04-26 11:03 -31.68115 152.80651 297 ft 635 kts 211°
2026-04-26 11:04 -31.72299 152.80386 324 ft 624 kts 180°
2026-04-26 11:04 -31.75798 152.77528 149 ft 637 kts 218°
2026-04-26 11:04 -31.79481 152.74588 155 ft 641 kts 208°
2026-04-26 11:04 -31.83430 152.75137 717 ft 617 kts 159°
2026-04-26 11:05 -31.86713 152.72496 375 ft 627 kts 235°
2026-04-26 11:05 -31.89200 152.68238 327 ft 639 kts 235°
2026-04-26 11:05 -31.91930 152.64061 256 ft 647 kts 229°
2026-04-26 11:05 -31.95362 152.60710 148 ft 643 kts 213°
2026-04-26 11:06 -31.99187 152.57962 160 ft 645 kts 206°
2026-04-26 11:06 -32.03170 152.55561 197 ft 643 kts 200°
2026-04-26 11:06 -32.07554 152.54654 281 ft 638 kts 208°
2026-04-26 11:06 -32.11066 152.51643 350 ft 628 kts 199°
2026-04-26 11:07 -32.15315 152.50760 251 ft 623 kts 173°
2026-04-26 11:07 -32.18430 152.53936 473 ft 632 kts 130°
2026-04-26 11:07 -32.21886 152.56853 664 ft 617 kts 188°
2026-04-26 11:07 -32.25486 152.54012 233 ft 631 kts 208°
2026-04-26 11:08 -32.29713 152.52698 357 ft 638 kts 174°
2026-04-26 11:08 -32.33511 152.55039 637 ft 618 kts 185°
2026-04-26 11:08 -32.37620 152.53438 325 ft 619 kts 188°
2026-04-26 11:08 -32.41585 152.52133 682 ft 610 kts 157°
2026-04-26 11:09 -32.44845 152.53049 628 ft 605 kts 234°
2026-04-26 11:09 -32.46295 152.48244 660 ft 624 kts 252°
2026-04-26 11:09 -32.47717 152.43552 519 ft 579 kts 245°
2026-04-26 11:09 -32.49763 152.39191 313 ft 619 kts 240°
2026-04-26 11:10 -32.52111 152.34904 273 ft 621 kts 231°
2026-04-26 11:10 -32.55261 152.31410 207 ft 620 kts 214°
2026-04-26 11:10 -32.59000 152.28899 358 ft 620 kts 219°
2026-04-26 11:10 -32.61861 152.25056 255 ft 625 kts 230°
2026-04-26 11:11 -32.64980 152.21595 531 ft 619 kts 204°
2026-04-26 11:11 -32.69209 152.20999 1111 ft 613 kts 189°
2026-04-26 11:11 -32.73220 152.19260 1859 ft 619 kts 208°
2026-04-26 11:11 -32.76719 152.16336 2673 ft 617 kts 228°
2026-04-26 11:12 -32.78974 152.11998 3202 ft 622 kts 243°
2026-04-26 11:12 -32.80910 152.07390 3249 ft 617 kts 244°
2026-04-26 11:12 -32.82773 152.02908 3155 ft 578 kts 244°
2026-04-26 11:12 -32.84410 151.98921 3068 ft 502 kts 244°
2026-04-26 11:13 -32.84834 151.95091 2747 ft 468 kts 281°
2026-04-26 11:13 -32.83858 151.91445 1823 ft 459 kts 295°
2026-04-26 11:13 -32.82355 151.88154 872 ft 443 kts 304°
2026-04-26 11:13 -32.80503 151.85339 392 ft 426 kts 310°
2026-04-26 11:14 -32.78313 151.82268 407 ft 542 kts 310°
2026-04-26 11:14 -32.79030 151.79579 1290 ft 371 kts 172°
2026-04-26 11:14 -32.80713 151.81085 1402 ft 232 kts 129°
2026-04-26 11:14 -32.81672 151.82292 1491 ft 175 kts 130°
2026-04-26 11:15 -32.82482 151.83302 1532 ft 176 kts 123°
2026-04-26 11:15 -32.82683 151.84692 1291 ft 163 kts 63°
2026-04-26 11:15 -32.81836 151.85360 723 ft 155 kts
2026-04-26 11:15 -32.80785 151.85051 209 ft 156 kts 324°
2026-04-26 11:16 -32.80077 151.84168 31 ft 122 kts 310°
2026-04-26 11:16 -32.79632 151.83544 26 ft 82 kts 311°
2026-04-26 11:16 -32.79330 151.83140 31 ft 41 kts 311°
2026-04-26 11:16 -32.79168 151.83040 32 ft 22 kts 27°
2026-04-26 11:17 -32.79155 151.83165 32 ft 16 kts 128°
2026-04-26 11:17 -32.79169 151.83186 32 ft 0 kts 130°
2026-04-26 11:17 -32.79185 151.83209 32 ft 13 kts 130°
2026-04-26 11:18 -32.79276 151.83335 31 ft 23 kts 129°
2026-04-26 11:18 -32.79357 151.83449 28 ft 8 kts 117°
2026-04-26 11:18 -32.79300 151.83527 30 ft 20 kts 40°
2026-04-26 11:18 -32.79189 151.83634 32 ft 23 kts 40°
2026-04-26 11:19 -32.79079 151.83727 31 ft 14 kts 341°
2026-04-26 11:19 -32.78994 151.83725 31 ft 15 kts 62°
2026-04-26 11:19 -32.79048 151.83795 31 ft 16 kts 143°
2026-04-26 11:19 -32.79095 151.83782 31 ft 0 kts 234°